Teton, Idaho
Current Conditions -  °F | °C
As of 2:36 PM on Saturday 22 Nov 2014 (Local Time) from KRXE Reporting Station
Overcast Overcast  
Wind Chill: 26°   Ceiling: 900
Heat Index: 37°   Visibility: 10mi
Dew Point: 33°   Wind: 23mph
Humidity: 86%   Direction: 220°SW
Pressure: 29.62"   Gusts: 31mph
Location:  43.89°N, 111.68°W
Report Text: KRXE 222136Z AUTO 22020G27KT 10SM OVC009 03/01 A2962 RMK AO2 PK WND 22027/2135 LTG DSNT N CIG 007V012 T00280006
Loading
Personal Weather Stations






























Interactive Weather Map New forecast layout! Learn more

10-Day Weather Forecast

Advertisements
Track Severe Weather on mobile